AFL1712 UIII-UNKL
Flight info
| Callsign | AFL1712 |
|---|---|
| Flight time | N/A |
| Altitude | 32000 |
| Route | BOGR5D BOGRA A815 TUTEK A91 SUKOR W176 TISBU A311 LALOM LALO2S |
| Aircraft | A320/M-VGD/A |
Departure
| Time | 2026-05-08 16:23 |
|---|---|
| Airport | Irkutsk International Airport (UIII) |
Arrival
| Time | N/A |
|---|---|
| Airport | Krasnoyarsk International Airport (UNKL) |
| Time | Latitude | Longitude | Altitude | Speed | Heading |
|---|---|---|---|---|---|
| 2026-05-08 16:01 | 52.27111 | 104.36787 | 1629 ft | 0 kts | 199° |
| 2026-05-08 16:15 | 52.27106 | 104.36785 | 1634 ft | 4 kts | 199° |
| 2026-05-08 16:15 | 52.27058 | 104.36832 | 1629 ft | 12 kts | 111° |
| 2026-05-08 16:15 | 52.27023 | 104.36982 | 1634 ft | 17 kts | 110° |
| 2026-05-08 16:16 | 52.26989 | 104.37183 | 1629 ft | 19 kts | 76° |
| 2026-05-08 16:16 | 52.26967 | 104.37407 | 1632 ft | 22 kts | 113° |
| 2026-05-08 16:16 | 52.26900 | 104.37662 | 1633 ft | 29 kts | 113° |
| 2026-05-08 16:16 | 52.26811 | 104.37996 | 1637 ft | 32 kts | 114° |
| 2026-05-08 16:17 | 52.26724 | 104.38322 | 1642 ft | 30 kts | 113° |
| 2026-05-08 16:17 | 52.26670 | 104.38527 | 1645 ft | 29 kts | 113° |
| 2026-05-08 16:17 | 52.26566 | 104.38917 | 1650 ft | 27 kts | 113° |
| 2026-05-08 16:17 | 52.26485 | 104.39224 | 1659 ft | 31 kts | 113° |
| 2026-05-08 16:18 | 52.26401 | 104.39539 | 1664 ft | 29 kts | 114° |
| 2026-05-08 16:18 | 52.26322 | 104.39834 | 1662 ft | 28 kts | 114° |
| 2026-05-08 16:18 | 52.26247 | 104.40113 | 1676 ft | 26 kts | 113° |
| 2026-05-08 16:18 | 52.26177 | 104.40376 | 1682 ft | 25 kts | 114° |
| 2026-05-08 16:19 | 52.26109 | 104.40630 | 1673 ft | 24 kts | 113° |
| 2026-05-08 16:19 | 52.26046 | 104.40873 | 1680 ft | 23 kts | 113° |
| 2026-05-08 16:19 | 52.25998 | 104.41110 | 1679 ft | 21 kts | 82° |
| 2026-05-08 16:19 | 52.26107 | 104.41237 | 1686 ft | 20 kts | 25° |
| 2026-05-08 16:20 | 52.26119 | 104.41247 | 1683 ft | 0 kts | 25° |
| 2026-05-08 16:21 | 52.26146 | 104.41268 | 1680 ft | 10 kts | 25° |
| 2026-05-08 16:21 | 52.26228 | 104.41269 | 1681 ft | 13 kts | 316° |
| 2026-05-08 16:22 | 52.26249 | 104.41201 | 1678 ft | 0 kts | 294° |
| 2026-05-08 16:22 | 52.26306 | 104.40989 | 1680 ft | 61 kts | 293° |
| 2026-05-08 16:22 | 52.26583 | 104.39939 | 1672 ft | 138 kts | 294° |
| 2026-05-08 16:22 | 52.27034 | 104.38212 | 1797 ft | 182 kts | 292° |
| 2026-05-08 16:23 | 52.27564 | 104.36201 | 2175 ft | 208 kts | 292° |
| 2026-05-08 16:23 | 52.28182 | 104.33881 | 2712 ft | 233 kts | 292° |
| 2026-05-08 16:23 | 52.28862 | 104.31333 | 3403 ft | 254 kts | 293° |
| 2026-05-08 16:23 | 52.29834 | 104.28935 | 4068 ft | 263 kts | 320° |
| 2026-05-08 16:24 | 52.31428 | 104.27447 | 4914 ft | 266 kts | 338° |
| 2026-05-08 16:24 | 52.33192 | 104.26507 | 5796 ft | 267 kts | 344° |
| 2026-05-08 16:24 | 52.34990 | 104.25725 | 6681 ft | 268 kts | 345° |
| 2026-05-08 16:24 | 52.36790 | 104.24926 | 7523 ft | 268 kts | 343° |
| 2026-05-08 16:25 | 52.38581 | 104.24057 | 8378 ft | 269 kts | 342° |
| 2026-05-08 16:25 | 52.40368 | 104.23120 | 9239 ft | 269 kts | 341° |
| 2026-05-08 16:25 | 52.42145 | 104.22135 | 10070 ft | 270 kts | 340° |
| 2026-05-08 16:25 | 52.43975 | 104.21083 | 10407 ft | 290 kts | 339° |
| 2026-05-08 16:26 | 52.45950 | 104.19925 | 10655 ft | 310 kts | 339° |
| 2026-05-08 16:26 | 52.48009 | 104.18706 | 11228 ft | 317 kts | 339° |
| 2026-05-08 16:26 | 52.50102 | 104.17461 | 11909 ft | 322 kts | 339° |
| 2026-05-08 16:26 | 52.52218 | 104.16202 | 12581 ft | 326 kts | 339° |
| 2026-05-08 16:27 | 52.54365 | 104.14924 | 13251 ft | 330 kts | 339° |
| 2026-05-08 16:27 | 52.56536 | 104.13630 | 13911 ft | 334 kts | 339° |
| 2026-05-08 16:27 | 52.58730 | 104.12323 | 14499 ft | 337 kts | 339° |
| 2026-05-08 16:27 | 52.60950 | 104.11003 | 15101 ft | 341 kts | 339° |
| 2026-05-08 16:28 | 52.63188 | 104.09673 | 15688 ft | 344 kts | 339° |
| 2026-05-08 16:28 | 52.65452 | 104.08325 | 16290 ft | 347 kts | 339° |
| 2026-05-08 16:28 | 52.67733 | 104.06962 | 16878 ft | 351 kts | 339° |
| 2026-05-08 16:28 | 52.70037 | 104.05581 | 17452 ft | 354 kts | 339° |
| 2026-05-08 16:29 | 52.72364 | 104.04187 | 18021 ft | 357 kts | 339° |
| 2026-05-08 16:29 | 52.74715 | 104.02780 | 18548 ft | 361 kts | 339° |
| 2026-05-08 16:29 | 52.77083 | 104.01361 | 19048 ft | 364 kts | 339° |
| 2026-05-08 16:29 | 52.79479 | 103.99920 | 19547 ft | 367 kts | 339° |